Stuarts Draft, Virginia
Current Conditions -  °F | °C
As of 5:35 PM on Monday 26 Jan 2015 (Local Time) from KW13 Reporting Station
Overcast Overcast  
Wind Chill: 26°   Ceiling: 300
Heat Index: 32°   Visibility: 0.75mi
Dew Point: 32°   Wind: 7mph
Humidity: 100%   Direction: 350°N
Pressure: 29.64"   Gusts: NA
Location:  38.03°N, 79.03°W
Report Text: KW13 262235Z AUTO 35006KT 3/4SM OVC003 00/00 A2964 RMK AO1 T00000000
Loading
Personal Weather Stations






























Interactive Weather Map New forecast layout! Learn more

10-Day Weather Forecast

Advertisements
Track Severe Weather on mobile